Time;durP1;ratioP1;P1;durP2;ratioP2;P2;SDS_P1;SDS_P2;PMS_P1;PMS_P2;Temp;Humidity;BMP_temperature;BMP_pressure;BME280_temperature;BME280_humidity;BME280_pressure;Samples;Min_cycle;Max_cycle;Signal;HPM_P1;HPM_P2
2022/09/08 00:04:46;;;;;;;5.23;4.83;;;21.70;99.90;;;;;;10524464;28;20707;-81
2022/09/08 00:09:49;;;;;;;5.10;4.80;;;21.70;99.90;;;;;;10512607;28;20621;-80
2022/09/08 00:14:51;;;;;;;5.83;5.17;;;21.60;99.90;;;;;;10528522;28;20219;-80
2022/09/08 00:19:53;;;;;;;5.03;4.73;;;21.60;99.90;;;;;;10512373;28;20219;-81
2022/09/08 00:24:57;;;;;;;5.97;5.33;;;21.60;99.90;;;;;;10512195;28;20211;-80
2022/09/08 00:29:59;;;;;;;7.83;5.00;;;21.60;99.90;;;;;;10510925;28;20200;-80
2022/09/08 00:35:01;;;;;;;6.63;6.03;;;21.50;99.90;;;;;;10510771;28;20212;-80
2022/09/08 00:40:05;;;;;;;5.63;5.33;;;21.50;99.90;;;;;;10514224;28;20257;-80
2022/09/08 00:45:09;;;;;;;5.33;4.93;;;21.50;99.90;;;;;;10508765;28;20295;-80
2022/09/08 00:50:16;;;;;;;5.60;5.17;;;21.60;99.90;;;;;;10512420;28;20235;-81
2022/09/08 00:55:21;;;;;;;5.47;4.97;;;21.60;99.90;;;;;;10506183;28;20212;-80
2022/09/08 01:00:23;;;;;;;5.17;4.77;;;21.50;99.90;;;;;;10504581;28;20655;-80
2022/09/08 01:05:29;;;;;;;7.73;6.03;;;21.50;99.90;;;;;;10536218;28;20298;-81
2022/09/08 01:16:07;;;;;;;6.23;5.73;;;21.40;99.90;;;;;;10545557;28;20227;-80
2022/09/08 01:21:21;;;;;;;6.23;5.77;;;21.30;99.90;;;;;;10549407;28;20596;-81
2022/09/08 01:26:40;;;;;;;6.00;5.60;;;21.20;99.90;;;;;;10547200;28;20208;-80
2022/09/08 01:31:45;;;;;;;6.93;6.33;;;21.10;99.90;;;;;;10539101;28;20202;-80
2022/09/08 01:36:47;;;;;;;6.97;6.37;;;21.00;99.90;;;;;;10541247;28;20223;-80
2022/09/08 01:41:49;;;;;;;8.17;7.07;;;21.00;99.90;;;;;;10543808;28;20578;-80
2022/09/08 01:46:53;;;;;;;7.20;6.60;;;20.90;99.90;;;;;;10546963;28;20244;-80
2022/09/08 01:51:55;;;;;;;7.00;6.30;;;20.80;99.90;;;;;;10546205;28;20664;-80
2022/09/08 01:56:57;;;;;;;7.17;6.70;;;20.80;99.90;;;;;;10547948;28;20314;-80
2022/09/08 02:02:01;;;;;;;6.83;6.33;;;20.80;99.90;;;;;;10546993;28;20303;-80
2022/09/08 02:07:03;;;;;;;6.27;5.93;;;20.70;99.90;;;;;;10548937;28;20714;-80
2022/09/08 02:12:05;;;;;;;6.17;5.80;;;20.70;99.90;;;;;;10550906;28;20198;-80
2022/09/08 02:17:09;;;;;;;6.03;5.63;;;20.60;99.90;;;;;;10544070;28;20215;-80
2022/09/08 02:22:11;;;;;;;6.90;5.77;;;20.60;99.90;;;;;;10547864;28;20303;-80
2022/09/08 02:27:13;;;;;;;5.20;4.90;;;20.60;99.90;;;;;;10544887;28;20294;-80
2022/09/08 02:32:16;;;;;;;5.60;5.20;;;20.60;99.90;;;;;;10542071;28;20196;-80
2022/09/08 02:37:18;;;;;;;6.33;5.73;;;20.60;99.90;;;;;;10542153;28;20218;-80
2022/09/08 02:42:23;;;;;;;4.83;4.63;;;20.60;99.90;;;;;;10541770;28;20684;-79
2022/09/08 02:47:26;;;;;;;5.53;5.23;;;20.60;99.90;;;;;;10534871;28;20192;-80
2022/09/08 02:52:31;;;;;;;5.20;4.90;;;20.60;99.90;;;;;;10543971;28;20311;-80
2022/09/08 02:57:33;;;;;;;4.70;4.50;;;20.70;99.90;;;;;;10540790;28;20265;-80
2022/09/08 03:02:36;;;;;;;4.57;4.37;;;20.70;99.90;;;;;;10539709;28;20850;-80
2022/09/08 03:07:38;;;;;;;5.00;4.80;;;20.70;99.90;;;;;;10546446;28;20191;-80
2022/09/08 03:12:40;;;;;;;5.13;4.93;;;20.70;99.90;;;;;;10543385;28;20228;-80
2022/09/08 03:17:44;;;;;;;4.70;4.50;;;20.80;99.90;;;;;;10542599;28;20223;-79
2022/09/08 03:22:46;;;;;;;4.63;4.37;;;20.80;99.90;;;;;;10543205;28;20230;-80
2022/09/08 03:27:49;;;;;;;4.93;4.43;;;20.80;99.90;;;;;;10542910;28;20192;-82
2022/09/08 03:32:52;;;;;;;4.50;4.30;;;20.70;99.90;;;;;;10543369;28;20224;-81
2022/09/08 03:37:55;;;;;;;4.40;4.20;;;20.70;99.90;;;;;;10543149;28;20681;-80
2022/09/08 03:42:57;;;;;;;4.97;4.77;;;20.70;99.90;;;;;;10535163;28;20246;-81
2022/09/08 03:48:01;;;;;;;4.23;3.93;;;20.60;99.90;;;;;;10543571;28;20216;-81
2022/09/08 03:53:03;;;;;;;2.80;2.70;;;20.60;99.90;;;;;;10541583;28;20215;-81
2022/09/08 03:58:05;;;;;;;4.40;4.20;;;20.50;99.90;;;;;;10541795;28;20219;-81
2022/09/08 04:03:08;;;;;;;3.93;3.73;;;20.50;99.90;;;;;;10541571;28;20223;-80
2022/09/08 04:08:10;;;;;;;4.70;4.50;;;20.40;99.90;;;;;;10533453;28;20200;-81
2022/09/08 04:13:12;;;;;;;3.40;3.30;;;20.30;99.90;;;;;;10541523;28;20258;-81
2022/09/08 04:18:16;;;;;;;5.33;5.03;;;20.30;99.90;;;;;;10543358;28;20580;-81
2022/09/08 04:23:18;;;;;;;4.33;4.13;;;20.30;99.90;;;;;;10543381;28;20315;-81
2022/09/08 04:28:20;;;;;;;5.57;5.37;;;20.20;99.90;;;;;;10551544;28;20711;-81
2022/09/08 04:33:23;;;;;;;5.33;5.13;;;20.20;99.90;;;;;;10547634;28;20275;-79
2022/09/08 04:38:27;;;;;;;4.33;4.13;;;20.00;99.90;;;;;;10548200;28;20501;-81
2022/09/08 04:43:29;;;;;;;5.90;5.70;;;19.90;99.90;;;;;;10541900;28;20297;-81
2022/09/08 04:48:32;;;;;;;3.70;3.50;;;19.80;99.90;;;;;;10541084;28;20198;-81
2022/09/08 04:53:36;;;;;;;5.50;5.30;;;19.70;99.90;;;;;;10528837;28;20219;-81
2022/09/08 04:58:40;;;;;;;5.13;4.93;;;19.70;99.90;;;;;;10539575;28;20245;-80
2022/09/08 05:03:43;;;;;;;5.30;5.10;;;19.60;99.90;;;;;;10543351;28;20259;-79
2022/09/08 05:08:47;;;;;;;6.30;6.10;;;19.50;99.90;;;;;;10539925;28;20278;-81
2022/09/08 05:13:50;;;;;;;5.00;4.80;;;19.50;99.90;;;;;;10532022;28;20231;-81
2022/09/08 05:18:55;;;;;;;6.50;6.10;;;19.50;99.90;;;;;;10507505;28;20699;-81
2022/09/08 05:24:00;;;;;;;6.40;6.20;;;19.50;99.90;;;;;;10519647;28;20219;-80
2022/09/08 05:29:03;;;;;;;5.07;4.80;;;19.60;99.90;;;;;;10507041;28;20200;-79
2022/09/08 05:34:07;;;;;;;6.10;5.80;;;19.70;99.90;;;;;;10533071;28;20732;-79
2022/09/08 05:39:10;;;;;;;4.33;4.13;;;19.70;99.90;;;;;;10534669;28;20235;-79
2022/09/08 05:44:15;;;;;;;5.50;5.30;;;19.70;99.90;;;;;;10535642;28;20223;-79
2022/09/08 05:49:18;;;;;;;4.27;4.07;;;19.70;99.90;;;;;;10537141;28;20199;-79
2022/09/08 05:54:20;;;;;;;5.93;5.70;;;19.60;99.90;;;;;;10538583;28;20692;-79
2022/09/08 05:59:23;;;;;;;6.17;5.87;;;19.60;99.90;;;;;;10538091;28;20224;-79
2022/09/08 06:04:26;;;;;;;6.03;5.70;;;19.60;99.90;;;;;;10541583;28;20215;-79
2022/09/08 06:09:28;;;;;;;5.90;5.60;;;19.50;99.90;;;;;;10548250;28;20652;-80
2022/09/08 06:14:30;;;;;;;5.70;5.20;;;19.60;99.90;;;;;;10545156;28;20234;-80
2022/09/08 06:19:34;;;;;;;6.30;6.10;;;19.60;99.90;;;;;;10550703;28;20281;-78
2022/09/08 06:24:36;;;;;;;5.77;5.57;;;19.60;99.90;;;;;;10549145;28;20269;-80
2022/09/08 06:30:01;;;;;;;5.30;5.10;;;19.60;99.90;;;;;;10546317;28;20255;-80
2022/09/08 06:35:10;;;;;;;5.10;4.90;;;19.60;99.90;;;;;;10536996;28;20223;-79
2022/09/08 06:40:18;;;;;;;4.80;4.60;;;19.60;99.90;;;;;;10543242;28;20251;-80
2022/09/08 06:45:24;;;;;;;4.73;4.57;;;19.50;99.90;;;;;;10542615;28;20215;-80
2022/09/08 06:50:28;;;;;;;4.50;4.30;;;19.50;99.90;;;;;;10550729;28;20707;-79
2022/09/08 06:55:38;;;;;;;6.73;5.13;;;19.50;99.90;;;;;;10552264;28;20235;-78
2022/09/08 07:00:47;;;;;;;4.80;4.50;;;19.50;99.90;;;;;;10532585;28;20196;-79
2022/09/08 07:06:01;;;;;;;4.90;4.70;;;19.50;99.90;;;;;;10537846;28;20499;-79
2022/09/08 07:11:12;;;;;;;4.13;3.93;;;19.60;99.90;;;;;;10543074;28;20255;-79
2022/09/08 07:16:21;;;;;;;2.80;2.70;;;19.60;99.90;;;;;;10544523;28;20284;-80
2022/09/08 07:21:34;;;;;;;3.80;3.70;;;19.70;99.90;;;;;;10544636;28;20363;-79
2022/09/08 07:26:45;;;;;;;4.00;3.80;;;19.80;99.90;;;;;;10537148;28;20212;-80
2022/09/08 07:31:51;;;;;;;3.27;3.17;;;19.80;99.90;;;;;;10541294;28;20551;-78
2022/09/08 07:37:05;;;;;;;3.73;3.63;;;19.90;99.90;;;;;;10535780;28;20219;-78
2022/09/08 07:42:14;;;;;;;3.70;3.60;;;20.10;99.90;;;;;;10536111;28;20254;-79
2022/09/08 07:47:30;;;;;;;3.30;3.20;;;20.20;99.90;;;;;;10535885;28;20227;-78
2022/09/08 07:52:40;;;;;;;3.80;3.60;;;20.30;99.90;;;;;;10537451;28;20279;-81
2022/09/08 07:57:51;;;;;;;3.70;3.60;;;20.40;99.90;;;;;;10543546;28;20227;-81
2022/09/08 08:03:22;;;;;;;3.47;3.30;;;20.70;99.90;;;;;;10533677;28;20212;-80
2022/09/08 08:08:35;;;;;;;2.93;2.83;;;20.90;99.90;;;;;;10509491;28;20196;-79
2022/09/08 08:14:06;;;;;;;4.30;4.10;;;21.00;99.90;;;;;;10504991;28;20231;-79
2022/09/08 08:19:25;;;;;;;3.10;3.00;;;21.00;99.90;;;;;;10500962;28;20311;-79
2022/09/08 08:24:41;;;;;;;3.50;3.40;;;21.00;99.90;;;;;;10500621;28;20692;-79
2022/09/08 08:30:17;;;;;;;3.00;2.90;;;20.90;99.90;;;;;;10497112;28;20640;-79
2022/09/08 08:35:27;;;;;;;3.50;3.40;;;20.80;99.90;;;;;;10499572;28;20299;-81
2022/09/08 08:40:50;;;;;;;3.60;3.40;;;20.90;99.90;;;;;;10494955;28;20266;-80
2022/09/08 08:46:20;;;;;;;4.70;4.50;;;21.20;99.90;;;;;;10496926;28;20212;-80
2022/09/08 08:51:47;;;;;;;2.50;2.40;;;21.40;99.90;;;;;;10485553;28;20204;-81
2022/09/08 08:56:59;;;;;;;3.37;3.27;;;21.50;99.90;;;;;;10516427;28;20227;-80
2022/09/08 09:02:16;;;;;;;3.30;3.20;;;21.70;99.90;;;;;;10508535;28;20200;-79
2022/09/08 09:07:55;;;;;;;4.03;3.80;;;21.70;99.90;;;;;;10496135;28;20200;-78
2022/09/08 09:13:27;;;;;;;3.20;3.10;;;21.80;99.90;;;;;;10522893;28;20248;-80
2022/09/08 09:19:13;;;;;;;3.47;3.37;;;21.90;99.90;;;;;;10535292;28;20227;-80
2022/09/08 09:24:30;;;;;;;3.53;3.23;;;22.10;99.90;;;;;;10528170;28;20312;-80
2022/09/08 09:29:42;;;;;;;2.60;2.50;;;22.20;99.90;;;;;;10521052;28;20195;-80
2022/09/08 09:35:20;;;;;;;3.27;3.17;;;22.20;99.90;;;;;;10511272;28;20687;-80
2022/09/08 09:40:37;;;;;;;4.17;3.87;;;22.20;99.90;;;;;;10469318;28;20235;-80
2022/09/08 09:46:00;;;;;;;2.90;2.80;;;22.10;99.90;;;;;;10527493;28;20207;-79
2022/09/08 09:51:12;;;;;;;2.90;2.80;;;22.20;99.90;;;;;;10511490;28;20241;-78
2022/09/08 09:57:05;;;;;;;2.80;2.60;;;22.40;99.60;;;;;;10536475;28;20247;-81
2022/09/08 10:08:00;;;;;;;3.50;3.30;;;22.70;99.90;;;;;;10659961;27;20546;-80
2022/09/08 10:13:37;;;;;;;3.33;3.23;;;23.00;98.40;;;;;;10652608;27;20705;-80
2022/09/08 10:19:10;;;;;;;3.50;3.40;;;22.90;97.90;;;;;;10632802;27;20281;-79
2022/09/08 10:24:53;;;;;;;3.70;3.60;;;23.00;98.20;;;;;;10641664;27;20429;-79
2022/09/08 10:30:36;;;;;;;4.27;3.43;;;23.10;97.30;;;;;;10611326;27;20229;-79
2022/09/08 10:35:44;;;;;;;3.87;3.67;;;23.00;97.70;;;;;;10638675;27;20605;-79
2022/09/08 10:41:07;;;;;;;3.97;3.77;;;23.00;97.70;;;;;;10658725;27;20194;-82
2022/09/08 10:46:51;;;;;;;3.60;3.30;;;23.00;98.10;;;;;;10639815;27;20313;-82
2022/09/08 10:52:17;;;;;;;3.37;3.10;;;23.10;97.60;;;;;;10633489;27;20293;-81
2022/09/08 10:57:38;;;;;;;4.10;3.90;;;23.10;96.80;;;;;;10655409;27;20262;-81
2022/09/08 11:03:00;;;;;;;4.50;4.23;;;23.10;96.60;;;;;;10657653;27;20304;-81
2022/09/08 11:08:38;;;;;;;4.10;3.80;;;23.00;96.20;;;;;;10660707;27;20193;-81
2022/09/08 11:14:00;;;;;;;4.10;3.90;;;23.00;95.90;;;;;;10613936;27;20286;-81
2022/09/08 11:19:36;;;;;;;2.80;2.70;;;22.90;95.80;;;;;;10608176;27;20290;-81
2022/09/08 11:24:46;;;;;;;3.30;3.20;;;23.00;97.10;;;;;;10597404;27;20261;-81
2022/09/08 11:30:13;;;;;;;3.27;3.17;;;23.00;97.40;;;;;;10607514;27;20199;-82
2022/09/08 11:35:32;;;;;;;3.40;3.30;;;23.10;96.10;;;;;;10612989;27;20214;-82
2022/09/08 11:41:17;;;;;;;3.70;3.60;;;23.30;96.70;;;;;;10607274;27;20219;-82
2022/09/08 11:46:37;;;;;;;2.93;2.83;;;23.40;97.60;;;;;;10592186;27;20219;-82
2022/09/08 11:51:56;;;;;;;3.60;3.50;;;23.30;97.00;;;;;;10589853;28;20199;-82
2022/09/08 11:57:29;;;;;;;4.33;4.03;;;23.00;97.80;;;;;;10595717;28;20299;-81
2022/09/08 12:03:03;;;;;;;4.27;3.60;;;22.90;96.40;;;;;;10608573;27;20626;-82
2022/09/08 12:08:42;;;;;;;3.50;3.30;;;22.80;97.40;;;;;;10605921;27;20290;-82
2022/09/08 12:13:50;;;;;;;4.40;4.20;;;22.90;96.40;;;;;;10619444;27;20674;-80
2022/09/08 12:19:22;;;;;;;6.90;3.40;;;22.90;95.80;;;;;;10593991;27;20207;-79
2022/09/08 12:24:49;;;;;;;4.20;4.00;;;22.90;96.40;;;;;;10598196;27;20210;-83
2022/09/08 12:30:05;;;;;;;3.40;3.10;;;22.90;96.80;;;;;;10615684;27;20663;-82
2022/09/08 12:35:39;;;;;;;4.10;3.80;;;23.00;95.70;;;;;;10613849;27;20756;-82
2022/09/08 12:41:11;;;;;;;3.27;3.07;;;23.10;95.10;;;;;;10573670;27;20251;-82
2022/09/08 12:46:40;;;;;;;3.23;3.00;;;23.10;95.70;;;;;;10607929;27;20314;-82
2022/09/08 12:51:44;;;;;;;4.10;3.80;;;23.20;95.20;;;;;;10594538;27;20294;-80
2022/09/08 12:57:16;;;;;;;4.07;3.77;;;23.20;94.80;;;;;;10603975;27;20226;-79
2022/09/08 13:02:40;;;;;;;3.90;3.60;;;23.00;95.20;;;;;;10573501;28;20225;-78
2022/09/08 13:07:53;;;;;;;3.57;3.37;;;22.90;94.40;;;;;;10626527;27;20222;-79
2022/09/08 13:13:30;;;;;;;3.70;3.60;;;22.70;95.40;;;;;;10610141;27;20286;-79
2022/09/08 13:18:38;;;;;;;3.60;3.40;;;22.80;94.80;;;;;;10619708;27;20198;-79
2022/09/08 13:23:47;;;;;;;2.73;2.63;;;23.00;94.40;;;;;;10584244;28;20223;-79
2022/09/08 13:29:03;;;;;;;3.83;3.73;;;23.30;93.60;;;;;;10615264;27;20252;-78
2022/09/08 13:34:25;;;;;;;3.70;3.50;;;23.50;91.40;;;;;;10590953;27;20270;-79
2022/09/08 13:39:45;;;;;;;2.77;2.67;;;23.60;92.60;;;;;;10609701;27;20259;-79
2022/09/08 13:45:11;;;;;;;3.87;3.67;;;23.50;91.70;;;;;;10585070;27;20214;-79
2022/09/08 13:50:29;;;;;;;2.53;2.43;;;23.50;92.70;;;;;;10622024;27;20471;-79
2022/09/08 13:55:49;;;;;;;3.70;3.50;;;23.40;92.10;;;;;;10618122;27;20237;-79
2022/09/08 14:01:11;;;;;;;3.67;3.37;;;23.40;91.60;;;;;;10588204;27;20244;-79
2022/09/08 14:06:16;;;;;;;3.40;3.30;;;23.20;91.10;;;;;;10597206;28;20589;-79
2022/09/08 14:11:37;;;;;;;3.10;3.00;;;23.20;91.20;;;;;;10598613;28;20237;-79
2022/09/08 14:16:40;;;;;;;2.77;2.57;;;23.20;90.80;;;;;;10594651;28;20242;-79
2022/09/08 14:21:58;;;;;;;3.30;3.00;;;23.20;92.20;;;;;;10609260;28;20356;-79
2022/09/08 14:27:22;;;;;;;3.10;3.00;;;23.30;90.00;;;;;;10598500;28;20306;-80
2022/09/08 14:32:47;;;;;;;3.70;3.50;;;23.20;90.60;;;;;;10572507;28;20354;-82
2022/09/08 14:37:58;;;;;;;3.23;3.10;;;23.10;90.40;;;;;;10600036;28;20191;-79
2022/09/08 14:43:21;;;;;;;2.17;2.00;;;23.10;90.30;;;;;;10602696;28;20211;-80
2022/09/08 14:48:25;;;;;;;3.73;3.53;;;23.20;89.60;;;;;;10610381;28;20257;-80
2022/09/08 14:53:44;;;;;;;3.60;3.50;;;23.30;90.70;;;;;;10603476;27;20210;-79
2022/09/08 14:58:55;;;;;;;3.53;3.23;;;23.40;91.90;;;;;;10587364;28;20619;-79
2022/09/08 15:04:02;;;;;;;5.23;3.50;;;23.50;92.10;;;;;;10601501;22;20225;-81
2022/09/08 15:09:31;;;;;;;4.17;3.97;;;23.50;91.70;;;;;;10503019;28;20721;-81
2022/09/08 15:14:49;;;;;;;3.60;3.30;;;23.50;91.00;;;;;;10496528;28;20795;-81
2022/09/08 15:19:57;;;;;;;3.90;3.70;;;23.40;90.60;;;;;;10490768;28;20204;-81
2022/09/08 15:25:14;;;;;;;3.90;3.70;;;23.20;91.60;;;;;;10450983;28;20601;-81
2022/09/08 15:30:20;;;;;;;4.30;4.00;;;23.00;91.30;;;;;;10441559;28;20610;-81
2022/09/08 15:35:37;;;;;;;3.60;3.30;;;22.90;92.30;;;;;;10479338;28;20236;-81
2022/09/08 15:40:39;;;;;;;3.80;3.53;;;22.70;92.60;;;;;;10451050;28;20197;-81
2022/09/08 15:46:02;;;;;;;3.30;2.97;;;22.70;91.80;;;;;;10459556;28;20221;-82
2022/09/08 15:51:17;;;;;;;4.07;3.87;;;22.80;91.90;;;;;;10466606;28;20232;-81
2022/09/08 15:56:44;;;;;;;3.73;3.43;;;22.80;91.10;;;;;;10448227;28;20789;-81
2022/09/08 16:01:56;;;;;;;4.00;3.63;;;22.80;91.30;;;;;;10454533;28;20691;-81
2022/09/08 16:07:09;;;;;;;3.67;3.33;;;22.80;90.70;;;;;;10439360;28;20722;-81
2022/09/08 16:12:18;;;;;;;3.97;3.67;;;22.80;90.30;;;;;;10469053;28;20267;-81
2022/09/08 16:17:22;;;;;;;2.60;2.40;;;22.80;90.20;;;;;;10479360;28;20213;-81
2022/09/08 16:22:35;;;;;;;4.17;3.77;;;22.70;88.30;;;;;;10476443;28;20207;-80
2022/09/08 16:27:55;;;;;;;3.93;3.67;;;22.60;90.90;;;;;;10470716;28;20221;-80
2022/09/08 16:33:13;;;;;;;4.73;4.17;;;22.60;92.20;;;;;;10471396;28;20292;-80
2022/09/08 16:38:33;;;;;;;3.27;3.07;;;22.60;90.70;;;;;;10491704;28;20242;-80
2022/09/08 16:43:38;;;;;;;4.10;3.73;;;22.50;91.70;;;;;;10489605;28;20200;-80
2022/09/08 16:48:52;;;;;;;3.17;2.97;;;22.50;90.60;;;;;;10491776;28;20307;-80
2022/09/08 16:53:56;;;;;;;3.50;3.30;;;22.50;91.40;;;;;;10489352;28;20785;-81
2022/09/08 16:59:06;;;;;;;3.63;3.33;;;22.50;91.20;;;;;;10481880;28;20415;-80
2022/09/08 17:04:33;;;;;;;3.60;3.30;;;22.50;91.90;;;;;;10485966;28;20613;-81
2022/09/08 17:09:51;;;;;;;3.40;3.10;;;22.50;93.30;;;;;;10485351;28;20208;-81
2022/09/08 17:15:19;;;;;;;3.10;2.90;;;22.60;91.10;;;;;;10471212;28;20252;-81
2022/09/08 17:20:29;;;;;;;3.30;3.10;;;22.50;90.30;;;;;;10493825;28;20268;-80
2022/09/08 17:25:44;;;;;;;3.53;3.33;;;22.40;90.80;;;;;;10492266;28;20334;-81
2022/09/08 17:31:06;;;;;;;3.97;3.70;;;22.30;91.00;;;;;;10483369;28;20648;-81
2022/09/08 17:36:23;;;;;;;1.97;1.77;;;22.20;88.60;;;;;;10485357;28;20223;-81
2022/09/08 17:41:42;;;;;;;3.80;3.50;;;22.20;91.10;;;;;;10489497;28;20219;-81
2022/09/08 17:46:48;;;;;;;3.90;3.40;;;22.10;91.40;;;;;;10489438;28;20857;-81
2022/09/08 17:52:01;;;;;;;3.10;2.90;;;22.00;91.40;;;;;;10493037;28;20664;-80
2022/09/08 17:57:09;;;;;;;3.73;3.57;;;21.90;91.90;;;;;;10486491;28;20228;-81
2022/09/08 18:02:39;;;;;;;3.10;2.80;;;21.80;91.20;;;;;;10477312;28;20192;-80
2022/09/08 18:07:49;;;;;;;3.17;3.00;;;21.70;92.60;;;;;;10471235;28;20296;-81
2022/09/08 18:13:04;;;;;;;3.80;3.50;;;21.70;93.10;;;;;;10481313;28;20246;-80
2022/09/08 18:18:22;;;;;;;5.07;3.30;;;21.60;93.00;;;;;;10487661;28;20687;-81
2022/09/08 18:23:36;;;;;;;4.10;3.80;;;21.50;93.10;;;;;;10463480;28;20230;-81
2022/09/08 18:29:01;;;;;;;4.07;3.77;;;21.50;93.30;;;;;;10496578;28;20224;-81
2022/09/08 18:34:19;;;;;;;3.43;3.20;;;21.40;92.60;;;;;;10489742;28;20220;-81
2022/09/08 18:39:27;;;;;;;3.40;3.07;;;21.30;92.30;;;;;;10493207;28;20205;-81
2022/09/08 18:44:32;;;;;;;3.90;3.60;;;21.10;92.50;;;;;;10459758;28;20249;-80
2022/09/08 18:49:40;;;;;;;4.03;3.80;;;21.00;93.20;;;;;;10497612;28;20200;-81
2022/09/08 18:55:22;;;;;;;4.10;3.90;;;20.90;92.60;;;;;;10501678;28;20703;-80
2022/09/08 19:00:24;;;;;;;4.00;3.80;;;20.70;92.50;;;;;;10500981;28;20191;-80
2022/09/08 19:05:30;;;;;;;4.27;3.97;;;20.50;93.60;;;;;;10470558;28;20224;-80
2022/09/08 19:10:36;;;;;;;3.30;3.10;;;20.30;93.50;;;;;;10498480;28;20200;-81
2022/09/08 19:15:53;;;;;;;3.50;3.30;;;20.30;94.10;;;;;;10499322;28;20307;-80
2022/09/08 19:20:57;;;;;;;4.40;4.10;;;20.20;93.10;;;;;;10490344;28;20265;-80
2022/09/08 19:26:15;;;;;;;4.20;3.80;;;20.10;93.90;;;;;;10503544;28;20259;-80
2022/09/08 19:31:33;;;;;;;3.50;3.30;;;20.00;94.20;;;;;;10496648;28;20573;-81
2022/09/08 19:36:51;;;;;;;4.60;4.20;;;19.90;94.40;;;;;;10498201;28;20216;-81
2022/09/08 19:42:02;;;;;;;4.17;3.97;;;19.90;94.90;;;;;;10501268;28;20196;-80
2022/09/08 19:47:25;;;;;;;4.17;3.60;;;19.90;94.80;;;;;;10503155;28;20224;-81
2022/09/08 19:52:33;;;;;;;3.90;3.60;;;19.80;95.10;;;;;;10472930;28;20221;-81
2022/09/08 19:57:39;;;;;;;4.07;3.87;;;19.80;95.30;;;;;;10496246;28;20262;-81
2022/09/08 20:03:00;;;;;;;3.73;3.43;;;19.70;94.80;;;;;;10498469;28;20201;-81
2022/09/08 20:08:02;;;;;;;5.03;4.47;;;19.70;94.80;;;;;;10494121;28;20224;-80
2022/09/08 20:13:12;;;;;;;5.37;4.97;;;19.50;95.30;;;;;;10498224;28;20287;-81
2022/09/08 20:18:21;;;;;;;4.33;4.10;;;19.50;95.80;;;;;;10491541;28;20231;-81
2022/09/08 20:23:29;;;;;;;4.10;3.90;;;19.40;95.90;;;;;;10497115;28;20204;-81
2022/09/08 20:28:57;;;;;;;4.63;4.23;;;19.40;96.70;;;;;;10503120;28;20232;-81
2022/09/08 20:34:21;;;;;;;4.00;3.70;;;19.50;96.40;;;;;;10489994;28;20308;-81
2022/09/08 20:39:35;;;;;;;4.53;4.13;;;19.50;96.70;;;;;;10502224;28;20185;-81
2022/09/08 20:44:41;;;;;;;4.33;4.03;;;19.50;96.60;;;;;;10496366;28;20708;-81
2022/09/08 20:49:46;;;;;;;3.53;3.33;;;19.40;96.30;;;;;;10463861;28;20209;-80
2022/09/08 20:54:55;;;;;;;4.10;3.80;;;19.40;96.30;;;;;;10463739;28;20255;-80
2022/09/08 21:00:01;;;;;;;3.73;3.47;;;19.40;96.10;;;;;;10484176;28;20222;-80
2022/09/08 21:05:13;;;;;;;3.80;3.37;;;19.40;96.20;;;;;;10502617;22;20232;-79
2022/09/08 21:10:23;;;;;;;4.57;4.20;;;19.30;96.50;;;;;;10509444;28;20246;-79
2022/09/08 21:15:54;;;;;;;3.83;3.53;;;19.30;96.40;;;;;;10490941;28;20236;-80
2022/09/08 21:21:02;;;;;;;3.30;3.17;;;19.20;96.10;;;;;;10441840;28;20201;-80
2022/09/08 21:26:13;;;;;;;3.30;3.10;;;19.20;95.70;;;;;;10463976;28;20232;-80
2022/09/08 21:31:34;;;;;;;5.63;3.60;;;19.20;95.00;;;;;;10467585;28;20676;-81
2022/09/08 21:36:46;;;;;;;3.87;3.53;;;19.20;95.20;;;;;;10460124;28;20550;-80
2022/09/08 21:41:49;;;;;;;3.30;3.10;;;19.30;95.00;;;;;;10456638;28;20205;-79
2022/09/08 21:46:54;;;;;;;2.73;2.40;;;19.30;94.60;;;;;;10458180;28;20772;-81
2022/09/08 21:51:59;;;;;;;3.30;3.00;;;19.30;94.90;;;;;;10450304;28;20671;-78
2022/09/08 21:57:13;;;;;;;4.90;3.67;;;19.30;95.10;;;;;;10460549;28;20275;-79
2022/09/08 22:02:26;;;;;;;3.60;3.30;;;19.30;96.50;;;;;;10458717;28;20419;-78
2022/09/08 22:07:30;;;;;;;4.00;2.83;;;19.30;95.90;;;;;;10447470;28;20220;-81
2022/09/08 22:12:33;;;;;;;4.60;3.50;;;19.40;96.80;;;;;;10454141;28;20205;-80
2022/09/08 22:17:47;;;;;;;4.30;3.70;;;19.40;95.80;;;;;;10455488;28;20247;-79
2022/09/08 22:22:52;;;;;;;4.43;4.13;;;19.40;96.50;;;;;;10458876;28;20227;-79
2022/09/08 22:27:57;;;;;;;3.83;3.43;;;19.50;95.80;;;;;;10451035;28;20220;-81
2022/09/08 22:33:03;;;;;;;3.93;3.63;;;19.50;96.60;;;;;;10456771;28;20747;-81
2022/09/08 22:38:23;;;;;;;3.97;3.67;;;19.50;95.90;;;;;;10433306;28;20239;-79
2022/09/08 22:43:47;;;;;;;3.83;3.50;;;19.50;95.90;;;;;;10458668;28;20196;-80
2022/09/08 22:48:56;;;;;;;4.23;3.87;;;19.50;95.30;;;;;;10442798;28;20222;-80
2022/09/08 22:54:01;;;;;;;4.00;3.70;;;19.50;96.00;;;;;;10435837;28;20281;-80
2022/09/08 22:59:20;;;;;;;4.37;4.07;;;19.40;95.90;;;;;;10442418;28;20667;-81
2022/09/08 23:04:28;;;;;;;4.00;3.70;;;19.40;95.80;;;;;;10461910;28;20595;-80
2022/09/08 23:09:30;;;;;;;3.87;3.57;;;19.40;96.20;;;;;;10454917;28;20230;-81
2022/09/08 23:14:45;;;;;;;3.40;3.17;;;19.40;96.40;;;;;;10467267;28;20742;-79
2022/09/08 23:19:59;;;;;;;3.30;3.10;;;19.40;95.70;;;;;;10449536;28;20281;-81
2022/09/08 23:25:11;;;;;;;4.03;3.73;;;19.30;95.30;;;;;;10446040;28;20566;-81
2022/09/08 23:30:18;;;;;;;3.77;3.47;;;19.30;95.20;;;;;;10448127;28;20251;-79
2022/09/08 23:35:27;;;;;;;3.90;3.00;;;19.20;95.80;;;;;;10445502;28;20283;-81
2022/09/08 23:40:32;;;;;;;3.23;3.00;;;19.20;95.40;;;;;;10442919;28;20205;-81
2022/09/08 23:45:37;;;;;;;3.23;3.03;;;19.20;95.90;;;;;;10442854;28;20313;-81
2022/09/08 23:50:41;;;;;;;3.37;2.97;;;19.10;96.10;;;;;;10455278;28;20415;-80
2022/09/08 23:55:49;;;;;;;3.37;3.07;;;19.10;95.80;;;;;;10455013;28;20217;-80
